Time;durP1;ratioP1;P1;durP2;ratioP2;P2;SDS_P1;SDS_P2;PMS_P1;PMS_P2;Temp;Humidity;BMP_temperature;BMP_pressure;BME280_temperature;BME280_humidity;BME280_pressure;Samples;Min_cycle;Max_cycle;Signal;HPM_P1;HPM_P2
2022/09/26 00:00:42;;;;;;;11.52;6.68;;;22.60;66.00;;;;;;7680613;22;80826;-59
2022/09/26 00:03:43;;;;;;;10.65;6.30;;;22.60;66.10;;;;;;7676767;22;80531;-59
2022/09/26 00:06:43;;;;;;;10.18;5.97;;;22.60;66.50;;;;;;7682102;22;80437;-59
2022/09/26 00:09:44;;;;;;;10.68;6.78;;;22.60;66.00;;;;;;7679202;22;80049;-60
2022/09/26 00:12:44;;;;;;;12.90;6.25;;;22.60;65.90;;;;;;7680450;22;80680;-60
2022/09/26 00:15:44;;;;;;;10.70;6.47;;;22.60;66.00;;;;;;7678390;22;80293;-60
2022/09/26 00:18:45;;;;;;;8.05;6.05;;;22.60;65.90;;;;;;7682509;22;80954;-60
2022/09/26 00:21:45;;;;;;;11.35;6.45;;;22.60;65.80;;;;;;7680873;22;80401;-59
2022/09/26 00:24:46;;;;;;;11.27;6.45;;;22.60;65.90;;;;;;7679374;22;80276;-48
2022/09/26 00:27:46;;;;;;;8.82;5.65;;;22.50;65.80;;;;;;7680285;22;80501;-59
2022/09/26 00:30:47;;;;;;;9.43;6.47;;;22.60;66.00;;;;;;7679516;22;80047;-47
2022/09/26 00:33:47;;;;;;;9.45;5.53;;;22.50;65.80;;;;;;7646817;22;81152;-48
2022/09/26 00:36:48;;;;;;;8.02;4.95;;;22.50;66.40;;;;;;7676965;22;80290;-50
2022/09/26 00:39:48;;;;;;;8.40;5.60;;;22.60;66.10;;;;;;7652996;22;83451;-52
2022/09/26 00:42:50;;;;;;;9.57;6.88;;;22.60;66.60;;;;;;7679621;22;80179;-55
2022/09/26 00:45:50;;;;;;;9.30;5.68;;;22.60;65.80;;;;;;7678010;22;81633;-52
2022/09/26 00:48:50;;;;;;;11.00;6.00;;;22.60;66.50;;;;;;7679785;22;81525;-49
2022/09/26 00:51:51;;;;;;;9.73;5.68;;;22.60;66.30;;;;;;7654560;22;83544;-52
2022/09/26 00:54:52;;;;;;;8.73;6.25;;;22.60;66.30;;;;;;7679828;22;80269;-48
2022/09/26 00:57:52;;;;;;;8.77;5.95;;;22.60;65.90;;;;;;7677048;22;80018;-50
2022/09/26 01:00:53;;;;;;;10.50;6.70;;;22.60;65.70;;;;;;7680441;22;80454;-49
2022/09/26 01:03:54;;;;;;;8.90;6.07;;;22.60;65.80;;;;;;7626118;22;83185;-49
2022/09/26 01:06:54;;;;;;;7.80;6.13;;;22.60;65.80;;;;;;7680189;22;80313;-50
2022/09/26 01:09:56;;;;;;;7.82;5.47;;;22.60;65.70;;;;;;7678361;22;83836;-52
2022/09/26 01:12:56;;;;;;;9.57;5.80;;;22.60;65.70;;;;;;7678706;22;80351;-51
2022/09/26 01:15:57;;;;;;;10.68;6.13;;;22.60;65.50;;;;;;7679360;22;80374;-50
2022/09/26 01:18:57;;;;;;;10.13;5.45;;;22.60;65.40;;;;;;7677992;22;79968;-59
2022/09/26 01:21:58;;;;;;;10.52;6.40;;;22.60;65.80;;;;;;7650853;22;80514;-58
2022/09/26 01:24:58;;;;;;;8.32;5.13;;;22.60;65.50;;;;;;7679065;22;80331;-58
2022/09/26 01:28:00;;;;;;;9.27;5.93;;;22.60;65.40;;;;;;7649064;22;83265;-57
2022/09/26 01:31:01;;;;;;;11.48;7.03;;;22.60;65.40;;;;;;7654671;22;83769;-58
2022/09/26 01:34:01;;;;;;;9.85;5.90;;;22.60;65.20;;;;;;7652120;22;81785;-58
2022/09/26 01:37:02;;;;;;;9.07;6.25;;;22.60;65.30;;;;;;7678901;22;81183;-48
2022/09/26 01:40:03;;;;;;;11.10;6.43;;;22.60;65.10;;;;;;7651397;22;81110;-48
2022/09/26 01:43:04;;;;;;;8.77;5.90;;;22.60;65.10;;;;;;7652612;22;82697;-53
2022/09/26 01:46:05;;;;;;;7.32;5.32;;;22.60;65.20;;;;;;7679902;22;80115;-51
2022/09/26 01:49:05;;;;;;;10.90;6.45;;;22.60;65.10;;;;;;7678075;22;81378;-51
2022/09/26 01:52:06;;;;;;;8.82;6.53;;;22.60;65.00;;;;;;7653059;22;81413;-50
2022/09/26 01:55:06;;;;;;;7.18;5.85;;;22.60;65.00;;;;;;7651068;22;82730;-51
2022/09/26 01:58:08;;;;;;;9.45;6.00;;;22.60;65.00;;;;;;7652529;22;82851;-50
2022/09/26 02:01:09;;;;;;;9.90;6.40;;;22.60;65.00;;;;;;7652991;22;82899;-47
2022/09/26 02:04:09;;;;;;;10.60;7.13;;;22.60;64.90;;;;;;7626568;22;82034;-48
2022/09/26 02:07:10;;;;;;;9.35;6.25;;;22.60;64.90;;;;;;7652514;22;82387;-51
2022/09/26 02:10:12;;;;;;;10.52;7.03;;;22.60;65.00;;;;;;7653851;22;83102;-53
2022/09/26 02:13:12;;;;;;;10.05;6.60;;;22.60;64.90;;;;;;7650949;22;83578;-59
2022/09/26 02:16:13;;;;;;;11.25;6.93;;;22.60;64.70;;;;;;7648789;22;82211;-59
2022/09/26 02:19:14;;;;;;;9.90;6.53;;;22.60;64.50;;;;;;7653172;22;83164;-59
2022/09/26 02:22:14;;;;;;;9.70;6.45;;;22.60;64.80;;;;;;7679430;22;80635;-58
2022/09/26 02:25:15;;;;;;;9.73;6.72;;;22.60;64.40;;;;;;7627743;22;84051;-59
2022/09/26 02:28:15;;;;;;;8.15;6.25;;;22.60;64.20;;;;;;7678775;22;85254;-59
2022/09/26 02:31:19;;;;;;;10.30;6.82;;;22.60;64.50;;;;;;7651141;22;81618;-58
2022/09/26 02:34:20;;;;;;;13.30;7.15;;;22.60;64.30;;;;;;7655457;22;82753;-58
2022/09/26 02:37:20;;;;;;;9.43;6.25;;;22.60;64.40;;;;;;7653171;22;83061;-58
2022/09/26 02:40:23;;;;;;;9.30;6.47;;;22.60;64.40;;;;;;7652301;22;82976;-58
2022/09/26 02:43:24;;;;;;;8.98;6.25;;;22.60;64.40;;;;;;7678827;22;80755;-59
2022/09/26 02:46:25;;;;;;;11.02;6.43;;;22.60;64.30;;;;;;7654475;22;80930;-59
2022/09/26 02:49:26;;;;;;;8.82;6.30;;;22.60;64.50;;;;;;7652164;22;83544;-58
2022/09/26 02:52:27;;;;;;;12.13;6.72;;;22.60;64.60;;;;;;7654172;22;82229;-59
2022/09/26 02:55:28;;;;;;;10.77;6.40;;;22.60;64.40;;;;;;7654012;22;83208;-59
2022/09/26 02:58:29;;;;;;;9.88;6.00;;;22.60;64.40;;;;;;7653874;22;83864;-58
2022/09/26 03:01:30;;;;;;;9.90;6.55;;;22.60;64.30;;;;;;7654220;22;82308;-59
2022/09/26 03:04:31;;;;;;;10.18;6.40;;;22.60;64.30;;;;;;7654143;22;83121;-58
2022/09/26 03:07:31;;;;;;;9.73;6.30;;;22.60;63.90;;;;;;7651911;22;83134;-58
2022/09/26 03:10:32;;;;;;;10.75;6.95;;;22.60;63.90;;;;;;7680900;22;81121;-62
2022/09/26 03:13:33;;;;;;;8.20;5.53;;;22.60;63.70;;;;;;7652924;22;82919;-61
2022/09/26 03:16:33;;;;;;;8.75;5.65;;;22.50;63.70;;;;;;7653031;22;81994;-62
2022/09/26 03:19:34;;;;;;;11.60;6.60;;;22.60;63.80;;;;;;7647656;22;81476;-62
2022/09/26 03:22:34;;;;;;;10.55;6.95;;;22.60;63.80;;;;;;7654541;22;83120;-62
2022/09/26 03:25:35;;;;;;;10.18;6.50;;;22.60;63.70;;;;;;7654262;22;82786;-63
2022/09/26 03:28:43;;;;;;;9.88;6.13;;;22.60;63.70;;;;;;7652836;22;82798;-63
2022/09/26 03:31:44;;;;;;;9.10;6.00;;;22.60;63.60;;;;;;7651665;22;83383;-62
2022/09/26 03:34:45;;;;;;;11.32;6.43;;;22.70;63.70;;;;;;7680278;22;80709;-62
2022/09/26 03:37:46;;;;;;;10.05;6.03;;;22.70;63.50;;;;;;7650746;22;82144;-64
2022/09/26 03:40:47;;;;;;;15.63;7.05;;;22.70;63.50;;;;;;7655499;22;82751;-64
2022/09/26 03:44:08;;;;;;;9.40;6.05;;;22.70;63.50;;;;;;7679193;22;82133;-64
2022/09/26 03:47:29;;;;;;;10.02;6.13;;;22.70;63.50;;;;;;7646918;22;80735;-64
2022/09/26 03:50:30;;;;;;;11.57;7.15;;;22.70;63.50;;;;;;7654865;22;83459;-62
2022/09/26 03:53:31;;;;;;;7.32;5.85;;;22.70;63.40;;;;;;7653020;22;83221;-63
2022/09/26 03:56:32;;;;;;;12.32;7.32;;;22.70;63.30;;;;;;7650596;22;83482;-63
2022/09/26 03:59:33;;;;;;;16.30;7.22;;;22.80;63.10;;;;;;7652754;22;83087;-64
2022/09/26 04:02:33;;;;;;;9.30;6.65;;;22.80;63.20;;;;;;7643160;22;83221;-63
2022/09/26 04:05:50;;;;;;;8.02;5.95;;;22.80;63.10;;;;;;7645688;22;87409;-62
2022/09/26 04:08:51;;;;;;;12.25;6.60;;;22.80;63.00;;;;;;7672942;22;81104;-61
2022/09/26 04:11:52;;;;;;;10.95;7.38;;;22.80;62.90;;;;;;7646392;22;83849;-63
2022/09/26 04:14:52;;;;;;;11.63;6.93;;;22.80;62.90;;;;;;7674483;22;80223;-62
2022/09/26 04:17:53;;;;;;;10.73;6.75;;;22.80;62.60;;;;;;7644605;22;83318;-62
2022/09/26 04:20:54;;;;;;;12.50;7.68;;;22.80;62.70;;;;;;7639984;22;83297;-62
2022/09/26 04:23:55;;;;;;;9.95;6.60;;;22.80;62.90;;;;;;7648042;22;82455;-59
2022/09/26 04:26:56;;;;;;;10.60;6.18;;;22.80;62.60;;;;;;7650277;22;82465;-56
2022/09/26 04:29:57;;;;;;;12.30;6.50;;;22.80;62.40;;;;;;7650680;22;82963;-57
2022/09/26 04:33:09;;;;;;;11.18;7.32;;;22.80;62.20;;;;;;7653282;22;82380;-58
2022/09/26 04:36:18;;;;;;;10.57;6.95;;;22.80;62.70;;;;;;7652812;22;81856;-57
2022/09/26 04:39:19;;;;;;;11.63;6.22;;;22.90;63.10;;;;;;7651113;22;83097;-58
2022/09/26 04:42:23;;;;;;;16.05;7.78;;;22.90;63.10;;;;;;7649906;22;82586;-46
2022/09/26 04:45:23;;;;;;;10.95;7.32;;;22.90;63.00;;;;;;7651337;22;83415;-47
2022/09/26 04:48:24;;;;;;;14.98;7.00;;;22.90;63.10;;;;;;7650621;22;83316;-46
2022/09/26 04:51:36;;;;;;;11.50;7.13;;;22.90;63.70;;;;;;7650347;22;80903;-47
2022/09/26 04:54:37;;;;;;;15.10;7.32;;;22.90;62.80;;;;;;7647556;22;82754;-48
2022/09/26 04:57:38;;;;;;;14.88;8.50;;;22.90;62.60;;;;;;7649108;22;82933;-57
2022/09/26 05:00:39;;;;;;;13.15;7.38;;;22.90;62.70;;;;;;7647723;22;82632;-53
2022/09/26 05:03:41;;;;;;;14.13;7.57;;;22.90;62.40;;;;;;7650994;22;83225;-48
2022/09/26 05:06:42;;;;;;;17.08;8.70;;;23.00;62.50;;;;;;7652089;22;83049;-55
2022/09/26 05:09:53;;;;;;;12.38;8.10;;;23.00;62.70;;;;;;7651135;22;82103;-57
2022/09/26 05:12:56;;;;;;;17.38;9.25;;;23.10;62.80;;;;;;7653370;22;82567;-54
2022/09/26 05:15:56;;;;;;;15.48;7.82;;;23.10;63.00;;;;;;7650196;22;81523;-49
2022/09/26 05:18:57;;;;;;;13.63;8.32;;;23.10;63.10;;;;;;7652025;22;82465;-54
2022/09/26 05:22:00;;;;;;;14.75;8.30;;;23.10;63.10;;;;;;7646341;22;81410;-59
2022/09/26 05:28:21;;;;;;;15.52;8.68;;;23.10;63.10;;;;;;7651699;22;87672;-58
2022/09/26 05:31:25;;;;;;;19.60;9.70;;;23.10;63.00;;;;;;7650032;22;81432;-56
2022/09/26 05:34:25;;;;;;;16.40;9.23;;;23.10;62.90;;;;;;7652685;22;83384;-54
2022/09/26 05:37:26;;;;;;;14.20;9.10;;;23.10;62.20;;;;;;7649970;22;83247;-66
2022/09/26 05:43:46;;;;;;;24.30;10.32;;;23.20;61.60;;;;;;7646547;22;82293;-71
2022/09/26 05:46:49;;;;;;;13.75;9.15;;;23.10;61.30;;;;;;7644876;22;82761;-62
2022/09/26 05:49:49;;;;;;;18.38;10.10;;;23.10;61.20;;;;;;7646268;22;85450;-59
2022/09/26 05:52:53;;;;;;;18.33;9.15;;;23.10;61.60;;;;;;7646304;22;83058;-67
2022/09/26 05:55:57;;;;;;;17.25;9.52;;;23.10;61.40;;;;;;7651245;22;85632;-64
2022/09/26 05:59:10;;;;;;;15.95;8.65;;;23.10;62.20;;;;;;7652544;22;82757;-66
2022/09/26 06:02:29;;;;;;;14.60;9.05;;;23.10;61.90;;;;;;7678662;22;80207;-66
2022/09/26 06:05:43;;;;;;;21.05;9.63;;;23.00;61.60;;;;;;7653319;22;81942;-64
2022/09/26 06:08:47;;;;;;;19.35;11.45;;;23.10;61.60;;;;;;7647292;22;83183;-65
2022/09/26 06:11:56;;;;;;;18.38;10.82;;;23.10;61.50;;;;;;7668743;22;83367;-64
2022/09/26 06:14:57;;;;;;;26.08;11.38;;;23.00;61.30;;;;;;7642488;22;86034;-64
2022/09/26 06:17:58;;;;;;;18.88;11.00;;;23.00;61.20;;;;;;7668526;22;83223;-64
2022/09/26 06:20:58;;;;;;;26.33;11.80;;;23.00;60.80;;;;;;7643269;22;85535;-65
2022/09/26 06:24:02;;;;;;;21.27;10.60;;;23.00;60.80;;;;;;7642543;22;85649;-65
2022/09/26 06:27:03;;;;;;;19.55;11.95;;;22.90;60.50;;;;;;7642465;22;85425;-64
2022/09/26 06:30:04;;;;;;;18.85;11.23;;;22.90;60.40;;;;;;7642692;22;84699;-65
2022/09/26 06:33:05;;;;;;;20.38;11.23;;;22.90;60.30;;;;;;7646445;22;85886;-63
2022/09/26 06:36:18;;;;;;;20.27;11.60;;;22.80;60.10;;;;;;7673411;22;82659;-66
2022/09/26 06:39:19;;;;;;;23.38;13.10;;;22.80;60.00;;;;;;7648794;22;84401;-66
2022/09/26 06:42:20;;;;;;;26.10;12.93;;;22.80;60.10;;;;;;7647823;22;85562;-66
2022/09/26 06:45:44;;;;;;;21.10;11.95;;;22.80;60.10;;;;;;7616310;22;82971;-64
2022/09/26 06:48:58;;;;;;;18.25;11.80;;;22.80;60.00;;;;;;7647281;22;85681;-57
2022/09/26 06:52:37;;;;;;;23.80;13.35;;;22.80;60.00;;;;;;7643476;22;88774;-58
2022/09/26 06:55:37;;;;;;;20.55;13.02;;;22.70;60.00;;;;;;7648280;22;84178;-59
2022/09/26 06:58:38;;;;;;;24.33;13.70;;;22.70;60.00;;;;;;7645873;22;83985;-59
2022/09/26 07:01:40;;;;;;;27.15;13.98;;;22.70;59.90;;;;;;7642367;22;85256;-61
2022/09/26 07:05:04;;;;;;;23.35;13.40;;;22.70;60.10;;;;;;7612356;22;82773;-63
2022/09/26 07:08:11;;;;;;;21.35;13.77;;;22.70;60.00;;;;;;7642346;22;85346;-61
2022/09/26 07:11:12;;;;;;;23.15;14.15;;;22.70;59.90;;;;;;7641836;22;84596;-62
2022/09/26 07:14:16;;;;;;;23.15;14.05;;;22.60;60.00;;;;;;7670346;22;82713;-67
2022/09/26 07:17:18;;;;;;;24.98;14.20;;;22.60;60.00;;;;;;7649736;22;85571;-65
2022/09/26 07:20:39;;;;;;;24.10;14.25;;;22.70;59.90;;;;;;7664818;22;83688;-63
2022/09/26 07:23:59;;;;;;;22.98;13.48;;;22.60;59.80;;;;;;7680174;22;82970;-64
2022/09/26 07:27:00;;;;;;;21.98;13.80;;;22.70;59.80;;;;;;7650869;22;83554;-65
2022/09/26 07:30:01;;;;;;;24.00;14.27;;;22.70;59.80;;;;;;7650867;22;84725;-66
2022/09/26 07:33:02;;;;;;;25.67;15.70;;;22.80;59.70;;;;;;7649703;22;85598;-65
2022/09/26 07:36:17;;;;;;;22.27;14.18;;;22.70;59.50;;;;;;7646553;22;85359;-65
2022/09/26 07:39:18;;;;;;;26.80;15.00;;;22.70;59.60;;;;;;7651586;22;85046;-65
2022/09/26 07:42:18;;;;;;;31.05;14.27;;;22.70;59.60;;;;;;7650431;22;85965;-65
2022/09/26 07:50:09;;;;;;;21.67;13.70;;;22.70;59.50;;;;;;7678640;22;82969;-64
2022/09/26 07:52:21;;;;;;;32.35;14.48;;;22.80;59.60;;;;;;7676910;22;87212;-67
2022/09/26 07:56:04;;;;;;;24.80;13.27;;;22.80;59.40;;;;;;7674107;22;83082;-67
2022/09/26 07:59:35;;;;;;;25.35;14.50;;;22.80;59.20;;;;;;7541715;22;83001;-65
2022/09/26 08:02:49;;;;;;;22.25;14.38;;;22.90;59.30;;;;;;7649119;22;85838;-58
2022/09/26 08:05:51;;;;;;;24.52;15.30;;;22.90;59.50;;;;;;7647268;22;84619;-58
2022/09/26 08:08:51;;;;;;;25.17;14.05;;;22.90;59.80;;;;;;7651265;22;85813;-59
2022/09/26 08:12:16;;;;;;;22.80;13.23;;;22.90;60.00;;;;;;7621918;22;83768;-58
2022/09/26 08:15:43;;;;;;;23.75;13.68;;;22.90;60.10;;;;;;7669657;22;84029;-59
2022/09/26 08:18:51;;;;;;;23.90;12.90;;;22.90;59.90;;;;;;7640840;22;84004;-59
2022/09/26 08:21:52;;;;;;;23.23;14.00;;;22.90;59.80;;;;;;7644201;22;85467;-64
2022/09/26 08:24:53;;;;;;;27.13;14.23;;;22.90;60.00;;;;;;7643845;22;86337;-66
2022/09/26 08:28:06;;;;;;;22.98;13.77;;;22.90;59.90;;;;;;7645217;22;88295;-65
2022/09/26 08:31:07;;;;;;;26.60;14.50;;;22.90;60.00;;;;;;7644282;22;85558;-65
2022/09/26 08:34:08;;;;;;;32.17;13.20;;;22.90;59.80;;;;;;7642012;22;85650;-64
2022/09/26 08:37:09;;;;;;;22.60;12.82;;;23.00;59.90;;;;;;7643635;22;85372;-65
2022/09/26 08:40:32;;;;;;;20.77;12.80;;;22.90;59.70;;;;;;7672023;22;87435;-56
2022/09/26 08:43:36;;;;;;;27.00;14.45;;;23.00;59.70;;;;;;7670876;22;83334;-58
2022/09/26 08:47:16;;;;;;;21.83;13.25;;;23.00;59.60;;;;;;7667188;22;84115;-57
2022/09/26 08:50:36;;;;;;;19.33;12.48;;;23.00;59.50;;;;;;7649449;22;85201;-58
2022/09/26 08:53:36;;;;;;;21.38;13.30;;;23.00;59.50;;;;;;7673120;22;83393;-57
2022/09/26 08:56:37;;;;;;;27.10;13.65;;;23.00;59.50;;;;;;7625487;22;86150;-58
2022/09/26 08:59:38;;;;;;;21.17;13.25;;;23.00;59.40;;;;;;7646591;22;85827;-62
2022/09/26 09:02:40;;;;;;;22.27;13.10;;;23.00;59.40;;;;;;7647110;22;85821;-67
2022/09/26 09:05:45;;;;;;;22.20;13.63;;;23.00;59.30;;;;;;7650851;22;85415;-67
2022/09/26 09:08:45;;;;;;;25.05;13.80;;;23.00;59.20;;;;;;7652039;22;85726;-68
2022/09/26 09:12:21;;;;;;;22.50;12.70;;;23.00;59.10;;;;;;7650515;22;83875;-68
2022/09/26 09:15:27;;;;;;;22.75;14.23;;;23.00;59.00;;;;;;7649206;22;84010;-59
2022/09/26 09:18:57;;;;;;;23.13;13.52;;;23.00;58.90;;;;;;7537661;22;83110;-59
2022/09/26 09:22:25;;;;;;;21.38;12.80;;;23.00;58.90;;;;;;7645125;22;90088;-59
2022/09/26 09:25:33;;;;;;;23.67;13.80;;;23.00;58.90;;;;;;7644991;22;84905;-58
2022/09/26 09:28:33;;;;;;;22.45;13.27;;;23.00;59.00;;;;;;7649243;22;85495;-60
2022/09/26 09:31:34;;;;;;;19.20;12.18;;;23.00;59.20;;;;;;7647256;22;85304;-58
2022/09/26 09:34:57;;;;;;;26.35;13.95;;;23.00;59.30;;;;;;7677689;22;83756;-63
2022/09/26 09:38:21;;;;;;;21.50;12.30;;;23.00;59.30;;;;;;7620752;22;83003;-63
2022/09/26 09:41:38;;;;;;;20.13;11.40;;;23.00;59.30;;;;;;7649656;22;85871;-64
2022/09/26 09:44:38;;;;;;;23.05;13.27;;;22.90;59.20;;;;;;7677018;22;82918;-64
2022/09/26 09:47:39;;;;;;;24.73;13.90;;;23.00;59.30;;;;;;7648954;22;85806;-63
2022/09/26 09:50:40;;;;;;;21.52;12.45;;;23.00;59.20;;;;;;7648509;22;85627;-63
2022/09/26 09:53:40;;;;;;;27.80;12.52;;;23.00;59.20;;;;;;7651348;22;85775;-56
2022/09/26 09:56:41;;;;;;;18.95;12.50;;;23.00;59.20;;;;;;7649726;22;84854;-56
2022/09/26 09:59:41;;;;;;;19.80;11.60;;;23.00;59.20;;;;;;7647493;22;85033;-56
2022/09/26 10:02:45;;;;;;;21.35;11.80;;;23.00;59.20;;;;;;7649354;22;85110;-57
2022/09/26 10:05:50;;;;;;;21.15;13.07;;;23.00;59.20;;;;;;7648589;22;85820;-55
2022/09/26 10:09:11;;;;;;;21.80;12.50;;;23.00;59.20;;;;;;7675372;22;84448;-56
2022/09/26 10:12:31;;;;;;;19.42;11.50;;;23.00;59.30;;;;;;7678343;22;82578;-55
2022/09/26 10:15:42;;;;;;;21.92;11.73;;;23.00;59.30;;;;;;7672577;22;84465;-55
2022/09/26 10:19:02;;;;;;;18.58;11.18;;;23.00;59.40;;;;;;7651512;22;83992;-56
2022/09/26 10:22:08;;;;;;;19.15;11.52;;;23.00;59.40;;;;;;7652028;22;84977;-55
2022/09/26 10:25:08;;;;;;;18.53;11.40;;;23.00;59.40;;;;;;7648386;22;85947;-56
2022/09/26 10:28:10;;;;;;;20.23;12.00;;;23.10;59.60;;;;;;7647304;22;85438;-57
2022/09/26 10:31:11;;;;;;;20.92;12.52;;;23.10;59.60;;;;;;7647687;22;85619;-54
2022/09/26 10:34:31;;;;;;;18.70;11.05;;;23.10;59.70;;;;;;7672264;22;88634;-55
2022/09/26 10:37:32;;;;;;;18.98;11.52;;;23.10;59.80;;;;;;7649949;22;83919;-56
2022/09/26 10:40:53;;;;;;;23.58;11.30;;;23.10;59.80;;;;;;7646553;22;85999;-54
2022/09/26 10:43:56;;;;;;;17.77;11.07;;;23.10;59.80;;;;;;7640445;22;89731;-56
2022/09/26 10:47:19;;;;;;;18.45;10.75;;;23.10;59.80;;;;;;7676706;22;83236;-56
2022/09/26 10:50:38;;;;;;;20.23;11.07;;;23.10;59.80;;;;;;7676253;22;83156;-56
2022/09/26 10:54:04;;;;;;;19.88;11.32;;;23.10;59.70;;;;;;7676765;22;84164;-56
2022/09/26 10:57:08;;;;;;;19.23;11.13;;;23.10;59.80;;;;;;7649226;22;85898;-57
2022/09/26 11:00:09;;;;;;;20.13;11.15;;;23.10;59.90;;;;;;7647179;22;85445;-57
2022/09/26 11:03:09;;;;;;;22.05;10.27;;;23.10;59.90;;;;;;7650950;22;83047;-55
2022/09/26 11:06:24;;;;;;;20.33;10.82;;;23.10;59.90;;;;;;7651459;22;84248;-56
2022/09/26 11:09:25;;;;;;;17.95;9.85;;;23.10;59.90;;;;;;7651038;22;85848;-57
2022/09/26 11:12:44;;;;;;;16.67;10.18;;;23.10;59.90;;;;;;7679743;22;82526;-55
2022/09/26 11:15:46;;;;;;;14.60;8.73;;;23.10;59.90;;;;;;7644966;22;84028;-56
2022/09/26 11:18:46;;;;;;;13.18;9.00;;;23.10;59.90;;;;;;7649187;22;85657;-56
2022/09/26 11:21:47;;;;;;;19.08;9.32;;;23.10;59.90;;;;;;7652718;22;82751;-57
2022/09/26 11:24:48;;;;;;;17.25;9.93;;;23.10;59.90;;;;;;7654775;22;82546;-50
2022/09/26 11:27:48;;;;;;;14.43;9.55;;;23.10;60.00;;;;;;7649982;22;82731;-51
2022/09/26 11:31:04;;;;;;;15.10;9.23;;;23.10;60.00;;;;;;7653626;22;82705;-46
2022/09/26 11:34:07;;;;;;;15.18;9.13;;;23.10;60.00;;;;;;7656587;22;82812;-49
2022/09/26 11:37:20;;;;;;;17.52;9.55;;;23.30;60.00;;;;;;7654537;22;88022;-48
2022/09/26 11:40:21;;;;;;;17.73;9.15;;;23.40;59.80;;;;;;7682697;22;80734;-49
2022/09/26 11:43:24;;;;;;;12.25;7.63;;;23.40;59.80;;;;;;7648717;22;82804;-51
2022/09/26 11:46:29;;;;;;;15.00;8.82;;;23.50;59.80;;;;;;7632577;22;82803;-50
2022/09/26 11:49:53;;;;;;;13.85;8.38;;;23.50;59.70;;;;;;7672015;22;81312;-50
2022/09/26 11:52:59;;;;;;;12.10;8.00;;;23.60;59.60;;;;;;7681248;22;80342;-48
2022/09/26 11:56:01;;;;;;;16.50;8.10;;;23.50;59.60;;;;;;7677589;22;81540;-48
2022/09/26 11:59:01;;;;;;;14.23;7.63;;;23.50;59.80;;;;;;7681849;22;80574;-52
2022/09/26 12:02:02;;;;;;;11.02;6.80;;;23.50;59.70;;;;;;7681860;22;80485;-59
2022/09/26 12:05:02;;;;;;;13.40;7.25;;;23.50;59.90;;;;;;7682637;22;80373;-59
2022/09/26 12:08:03;;;;;;;9.32;6.55;;;23.50;59.70;;;;;;7682636;22;80404;-60
2022/09/26 12:11:04;;;;;;;8.68;5.75;;;23.50;60.10;;;;;;7677771;22;81649;-59
2022/09/26 12:14:08;;;;;;;7.78;5.07;;;23.60;59.70;;;;;;7654023;22;83225;-59
2022/09/26 12:17:08;;;;;;;12.43;6.03;;;23.60;59.60;;;;;;7679613;22;80788;-59
2022/09/26 12:20:09;;;;;;;6.68;5.28;;;23.60;59.40;;;;;;7656657;22;83751;-58
2022/09/26 12:23:09;;;;;;;8.95;5.68;;;23.60;60.00;;;;;;7680084;22;80688;-59
2022/09/26 12:26:09;;;;;;;8.20;5.97;;;23.70;59.30;;;;;;7676731;22;81791;-58
2022/09/26 12:29:10;;;;;;;6.22;4.97;;;23.70;59.30;;;;;;7682035;22;81286;-56
2022/09/26 12:32:13;;;;;;;9.77;5.97;;;23.60;59.30;;;;;;7653312;22;80174;-57
2022/09/26 12:35:14;;;;;;;7.13;5.05;;;23.60;59.10;;;;;;7681279;22;81904;-58
2022/09/26 12:38:15;;;;;;;6.53;4.18;;;23.50;59.10;;;;;;7681156;22;80107;-56
2022/09/26 12:41:16;;;;;;;6.05;4.28;;;23.50;59.10;;;;;;7679971;22;80305;-57
2022/09/26 12:44:21;;;;;;;6.85;4.85;;;23.50;59.30;;;;;;7680715;22;80016;-56
2022/09/26 12:47:21;;;;;;;7.20;5.22;;;23.50;59.20;;;;;;7680226;22;80966;-56
2022/09/26 12:50:23;;;;;;;7.75;5.10;;;23.40;59.10;;;;;;7681495;22;82091;-57
2022/09/26 12:53:24;;;;;;;13.55;5.35;;;23.40;59.20;;;;;;7679850;22;80077;-59
2022/09/26 12:56:25;;;;;;;12.38;7.22;;;23.40;59.20;;;;;;7680070;22;81430;-59
2022/09/26 12:59:26;;;;;;;12.55;8.93;;;23.50;59.50;;;;;;7682865;22;80326;-60
2022/09/26 13:02:26;;;;;;;13.73;9.77;;;23.60;59.60;;;;;;7682605;22;81168;-57
2022/09/26 13:05:27;;;;;;;13.60;10.43;;;23.60;59.80;;;;;;7679601;22;80351;-57
2022/09/26 13:08:27;;;;;;;12.93;9.60;;;23.60;60.10;;;;;;7675786;22;83549;-48
2022/09/26 13:11:29;;;;;;;12.40;8.80;;;23.50;59.90;;;;;;7681778;22;82883;-47
2022/09/26 13:14:29;;;;;;;14.40;7.40;;;23.40;59.40;;;;;;7676069;22;80340;-57
2022/09/26 13:17:30;;;;;;;11.20;6.22;;;23.30;59.20;;;;;;7677338;22;80823;-57
2022/09/26 13:20:31;;;;;;;9.23;6.18;;;23.20;59.20;;;;;;7680085;22;80532;-57
2022/09/26 13:23:31;;;;;;;9.25;6.13;;;23.20;59.30;;;;;;7674856;22;80080;-57
2022/09/26 13:26:32;;;;;;;8.27;5.82;;;23.20;59.10;;;;;;7676523;22;80495;-58
2022/09/26 13:29:34;;;;;;;5.93;4.85;;;23.20;59.00;;;;;;7676553;22;81736;-58
2022/09/26 13:32:37;;;;;;;6.45;4.18;;;23.30;58.70;;;;;;7676000;22;80275;-48
2022/09/26 13:35:40;;;;;;;3.75;2.97;;;23.20;58.40;;;;;;7680962;22;79923;-47
2022/09/26 13:38:40;;;;;;;6.10;3.67;;;23.00;58.30;;;;;;7675545;22;80891;-48
2022/09/26 13:41:41;;;;;;;5.10;3.65;;;23.00;59.20;;;;;;7680867;22;80304;-48
2022/09/26 13:44:43;;;;;;;4.18;3.05;;;23.10;59.60;;;;;;7682909;22;79957;-47
2022/09/26 13:47:44;;;;;;;5.97;3.75;;;23.30;59.70;;;;;;7682924;22;80298;-51
2022/09/26 13:50:45;;;;;;;3.60;3.03;;;23.40;59.50;;;;;;7680497;22;81350;-59
2022/09/26 13:53:49;;;;;;;5.78;3.60;;;23.40;59.60;;;;;;7674944;22;80893;-47
2022/09/26 13:56:50;;;;;;;3.90;3.17;;;23.50;58.80;;;;;;7680729;22;80794;-51
2022/09/26 13:59:51;;;;;;;4.80;3.28;;;23.50;58.50;;;;;;7647528;22;82246;-54
2022/09/26 14:02:52;;;;;;;4.38;2.58;;;23.30;57.30;;;;;;7676331;22;80491;-49
2022/09/26 14:05:52;;;;;;;4.20;3.00;;;23.30;58.10;;;;;;7647839;22;80342;-52
2022/09/26 14:12:12;;;;;;;4.20;2.33;;;23.30;57.30;;;;;;7680528;22;81037;-48
2022/09/26 14:15:14;;;;;;;4.28;2.78;;;23.50;57.60;;;;;;7678600;22;81806;-49
2022/09/26 14:18:14;;;;;;;7.10;2.55;;;23.50;57.30;;;;;;7682299;22;80545;-49
2022/09/26 14:21:15;;;;;;;4.45;2.38;;;23.60;57.40;;;;;;7675210;22;81284;-48
2022/09/26 14:24:15;;;;;;;2.47;2.28;;;23.60;57.00;;;;;;7681162;22;86924;-49
2022/09/26 14:27:16;;;;;;;3.05;2.42;;;23.70;56.90;;;;;;7685130;22;80622;-49
2022/09/26 14:30:16;;;;;;;7.13;2.65;;;23.70;56.70;;;;;;7682886;22;80998;-58
2022/09/26 14:33:17;;;;;;;2.92;2.63;;;23.70;56.40;;;;;;7682557;22;80236;-58
2022/09/26 14:36:18;;;;;;;7.10;3.03;;;23.70;56.80;;;;;;7678362;22;80498;-58
2022/09/26 14:39:18;;;;;;;4.38;2.90;;;23.70;56.20;;;;;;7684785;22;80796;-54
2022/09/26 14:42:19;;;;;;;4.43;3.28;;;23.70;56.20;;;;;;7680944;22;81486;-61
2022/09/26 14:45:19;;;;;;;6.38;3.10;;;23.70;56.10;;;;;;7682552;22;80597;-58
2022/09/26 14:48:20;;;;;;;4.72;3.05;;;23.70;56.20;;;;;;7680084;22;82146;-61
2022/09/26 14:51:20;;;;;;;6.63;3.13;;;23.70;56.30;;;;;;7681681;22;81875;-62
2022/09/26 14:54:21;;;;;;;4.63;2.83;;;23.60;56.40;;;;;;7678936;22;80807;-58
2022/09/26 14:57:22;;;;;;;6.65;2.67;;;23.60;56.30;;;;;;7681271;22;80201;-58
2022/09/26 15:00:22;;;;;;;3.67;3.00;;;23.60;56.50;;;;;;7685272;22;80205;-60
2022/09/26 15:03:23;;;;;;;5.53;2.95;;;23.50;56.50;;;;;;7680656;22;80200;-59
2022/09/26 15:06:23;;;;;;;7.97;3.13;;;23.60;56.60;;;;;;7654441;22;82193;-61
2022/09/26 15:09:24;;;;;;;4.05;2.72;;;23.50;56.50;;;;;;7681023;22;80401;-61
2022/09/26 15:12:24;;;;;;;5.10;3.22;;;23.50;56.60;;;;;;7682179;22;80139;-60
2022/09/26 15:15:25;;;;;;;3.15;2.60;;;23.50;56.80;;;;;;7679532;22;82328;-60
2022/09/26 15:18:25;;;;;;;5.20;2.72;;;23.50;56.80;;;;;;7673707;22;81697;-60
2022/09/26 15:21:26;;;;;;;5.40;3.03;;;23.50;57.00;;;;;;7677412;22;80504;-60
2022/09/26 15:24:26;;;;;;;6.13;3.30;;;23.50;57.00;;;;;;7676627;22;81223;-60
2022/09/26 15:27:28;;;;;;;8.50;3.17;;;23.40;57.40;;;;;;7682731;22;80629;-59
2022/09/26 15:30:28;;;;;;;7.07;3.17;;;23.40;57.60;;;;;;7683827;22;80698;-59
2022/09/26 15:33:29;;;;;;;4.32;3.20;;;23.40;57.60;;;;;;7676058;22;80022;-59
2022/09/26 15:36:29;;;;;;;4.85;3.25;;;23.30;57.80;;;;;;7651209;22;81440;-59
2022/09/26 15:39:30;;;;;;;7.70;3.38;;;23.30;58.20;;;;;;7678124;22;80719;-59
2022/09/26 15:45:50;;;;;;;11.32;3.22;;;23.20;58.40;;;;;;7680426;22;80426;-51
2022/09/26 15:48:50;;;;;;;6.32;3.60;;;23.20;58.60;;;;;;7678601;22;82093;-49
2022/09/26 15:51:51;;;;;;;4.57;3.20;;;23.10;58.80;;;;;;7681059;22;80888;-52
2022/09/26 15:54:53;;;;;;;5.32;3.47;;;23.00;59.00;;;;;;7683130;22;81588;-49
2022/09/26 15:57:53;;;;;;;11.57;3.45;;;23.00;59.40;;;;;;7682514;22;80248;-49
2022/09/26 16:00:54;;;;;;;7.30;4.03;;;22.90;59.40;;;;;;7680652;22;80988;-64
2022/09/26 16:03:56;;;;;;;16.30;4.57;;;22.80;59.70;;;;;;7653000;22;80986;-59